sensor_id;sensor_type;location;lat;lon;timestamp;P1;durP1;ratioP1;P2;durP2;ratioP2
34369;SDS011;20635;55.812;37.560;2022-12-18T00:02:06;2.55;;;2.35;;
34369;SDS011;20635;55.812;37.560;2022-12-18T00:04:32;2.65;;;2.45;;
34369;SDS011;20635;55.812;37.560;2022-12-18T00:06:58;2.88;;;2.67;;
34369;SDS011;20635;55.812;37.560;2022-12-18T00:09:24;2.20;;;2.10;;
34369;SDS011;20635;55.812;37.560;2022-12-18T00:11:50;2.30;;;2.10;;
34369;SDS011;20635;55.812;37.560;2022-12-18T00:14:15;2.50;;;2.30;;
34369;SDS011;20635;55.812;37.560;2022-12-18T00:16:45;2.40;;;2.20;;
34369;SDS011;20635;55.812;37.560;2022-12-18T00:19:12;2.65;;;2.42;;
34369;SDS011;20635;55.812;37.560;2022-12-18T00:21:39;2.60;;;2.40;;
34369;SDS011;20635;55.812;37.560;2022-12-18T00:24:06;2.60;;;2.40;;
34369;SDS011;20635;55.812;37.560;2022-12-18T00:26:32;2.50;;;2.30;;
34369;SDS011;20635;55.812;37.560;2022-12-18T00:29:02;2.83;;;2.33;;
34369;SDS011;20635;55.812;37.560;2022-12-18T00:31:30;2.47;;;2.20;;
34369;SDS011;20635;55.812;37.560;2022-12-18T00:33:56;3.63;;;2.58;;
34369;SDS011;20635;55.812;37.560;2022-12-18T00:36:24;3.42;;;2.58;;
34369;SDS011;20635;55.812;37.560;2022-12-18T00:38:55;2.47;;;2.28;;
34369;SDS011;20635;55.812;37.560;2022-12-18T00:41:22;2.58;;;2.17;;
34369;SDS011;20635;55.812;37.560;2022-12-18T00:44:08;2.42;;;2.22;;
34369;SDS011;20635;55.812;37.560;2022-12-18T00:46:36;2.30;;;2.10;;
34369;SDS011;20635;55.812;37.560;2022-12-18T00:49:02;2.63;;;2.42;;
34369;SDS011;20635;55.812;37.560;2022-12-18T00:51:28;2.80;;;2.60;;
34369;SDS011;20635;55.812;37.560;2022-12-18T00:53:55;2.63;;;2.33;;
34369;SDS011;20635;55.812;37.560;2022-12-18T00:56:21;2.33;;;2.20;;
34369;SDS011;20635;55.812;37.560;2022-12-18T00:58:47;3.38;;;2.42;;
34369;SDS011;20635;55.812;37.560;2022-12-18T01:01:13;2.60;;;2.40;;
34369;SDS011;20635;55.812;37.560;2022-12-18T01:03:40;2.30;;;2.10;;
34369;SDS011;20635;55.812;37.560;2022-12-18T01:06:10;3.10;;;2.58;;
34369;SDS011;20635;55.812;37.560;2022-12-18T01:08:37;2.57;;;2.37;;
34369;SDS011;20635;55.812;37.560;2022-12-18T01:11:07;2.42;;;2.22;;
34369;SDS011;20635;55.812;37.560;2022-12-18T01:13:34;2.78;;;2.58;;
34369;SDS011;20635;55.812;37.560;2022-12-18T01:16:00;2.60;;;2.25;;
34369;SDS011;20635;55.812;37.560;2022-12-18T01:18:26;2.50;;;2.10;;
34369;SDS011;20635;55.812;37.560;2022-12-18T01:20:52;2.60;;;2.40;;
34369;SDS011;20635;55.812;37.560;2022-12-18T01:23:18;2.53;;;2.33;;
34369;SDS011;20635;55.812;37.560;2022-12-18T01:25:44;2.47;;;2.15;;
34369;SDS011;20635;55.812;37.560;2022-12-18T01:28:10;2.38;;;2.17;;
34369;SDS011;20635;55.812;37.560;2022-12-18T01:30:36;2.30;;;2.10;;
34369;SDS011;20635;55.812;37.560;2022-12-18T01:33:04;2.60;;;2.40;;
34369;SDS011;20635;55.812;37.560;2022-12-18T01:35:30;2.17;;;2.05;;
34369;SDS011;20635;55.812;37.560;2022-12-18T01:37:57;2.50;;;2.30;;
34369;SDS011;20635;55.812;37.560;2022-12-18T01:40:22;2.38;;;2.17;;
34369;SDS011;20635;55.812;37.560;2022-12-18T01:42:53;2.30;;;2.10;;
34369;SDS011;20635;55.812;37.560;2022-12-18T01:45:27;2.40;;;2.20;;
34369;SDS011;20635;55.812;37.560;2022-12-18T01:48:05;2.33;;;2.13;;
34369;SDS011;20635;55.812;37.560;2022-12-18T01:53:10;2.72;;;2.45;;
34369;SDS011;20635;55.812;37.560;2022-12-18T01:55:43;2.42;;;2.22;;
34369;SDS011;20635;55.812;37.560;2022-12-18T02:00:55;2.05;;;1.95;;
34369;SDS011;20635;55.812;37.560;2022-12-18T02:03:21;2.25;;;2.08;;
34369;SDS011;20635;55.812;37.560;2022-12-18T02:19:03;2.60;;;2.40;;
34369;SDS011;20635;55.812;37.560;2022-12-18T02:24:45;2.95;;;2.67;;
34369;SDS011;20635;55.812;37.560;2022-12-18T02:27:30;2.35;;;2.15;;
34369;SDS011;20635;55.812;37.560;2022-12-18T02:29:58;2.47;;;2.28;;
34369;SDS011;20635;55.812;37.560;2022-12-18T02:32:33;2.15;;;1.95;;
34369;SDS011;20635;55.812;37.560;2022-12-18T02:35:05;2.50;;;2.30;;
34369;SDS011;20635;55.812;37.560;2022-12-18T02:37:33;2.33;;;2.20;;
34369;SDS011;20635;55.812;37.560;2022-12-18T02:40:04;2.23;;;2.03;;
34369;SDS011;20635;55.812;37.560;2022-12-18T02:42:34;3.15;;;2.65;;
34369;SDS011;20635;55.812;37.560;2022-12-18T02:45:02;2.38;;;2.17;;
34369;SDS011;20635;55.812;37.560;2022-12-18T02:47:30;2.30;;;2.10;;
34369;SDS011;20635;55.812;37.560;2022-12-18T03:01:03;2.17;;;2.03;;
34369;SDS011;20635;55.812;37.560;2022-12-18T03:03:51;2.88;;;2.60;;
34369;SDS011;20635;55.812;37.560;2022-12-18T03:06:35;2.40;;;2.20;;
34369;SDS011;20635;55.812;37.560;2022-12-18T03:09:12;2.25;;;2.05;;
34369;SDS011;20635;55.812;37.560;2022-12-18T03:11:45;2.47;;;2.28;;
34369;SDS011;20635;55.812;37.560;2022-12-18T03:14:35;2.33;;;2.10;;
34369;SDS011;20635;55.812;37.560;2022-12-18T03:17:05;2.38;;;2.17;;
34369;SDS011;20635;55.812;37.560;2022-12-18T03:19:33;2.38;;;2.17;;
34369;SDS011;20635;55.812;37.560;2022-12-18T03:22:02;2.20;;;2.05;;
34369;SDS011;20635;55.812;37.560;2022-12-18T03:24:39;2.50;;;2.30;;
34369;SDS011;20635;55.812;37.560;2022-12-18T03:27:06;1.85;;;1.70;;
34369;SDS011;20635;55.812;37.560;2022-12-18T03:32:11;2.45;;;2.17;;
34369;SDS011;20635;55.812;37.560;2022-12-18T03:34:41;2.33;;;2.15;;
34369;SDS011;20635;55.812;37.560;2022-12-18T03:37:13;2.20;;;2.00;;
34369;SDS011;20635;55.812;37.560;2022-12-18T03:39:39;1.98;;;1.80;;
34369;SDS011;20635;55.812;37.560;2022-12-18T03:42:15;2.15;;;1.95;;
34369;SDS011;20635;55.812;37.560;2022-12-18T03:47:51;3.38;;;2.08;;
34369;SDS011;20635;55.812;37.560;2022-12-18T03:53:14;2.22;;;2.03;;
34369;SDS011;20635;55.812;37.560;2022-12-18T03:55:59;3.05;;;2.20;;
34369;SDS011;20635;55.812;37.560;2022-12-18T03:58:32;2.03;;;1.90;;
34369;SDS011;20635;55.812;37.560;2022-12-18T04:01:13;2.00;;;1.80;;
34369;SDS011;20635;55.812;37.560;2022-12-18T04:03:42;2.10;;;1.90;;
34369;SDS011;20635;55.812;37.560;2022-12-18T04:06:12;2.30;;;2.00;;
34369;SDS011;20635;55.812;37.560;2022-12-18T04:08:40;2.05;;;1.95;;
34369;SDS011;20635;55.812;37.560;2022-12-18T04:11:10;2.13;;;1.92;;
34369;SDS011;20635;55.812;37.560;2022-12-18T04:13:37;3.05;;;1.85;;
34369;SDS011;20635;55.812;37.560;2022-12-18T04:16:13;2.20;;;2.00;;
34369;SDS011;20635;55.812;37.560;2022-12-18T04:18:41;2.28;;;2.08;;
34369;SDS011;20635;55.812;37.560;2022-12-18T04:21:08;2.40;;;2.20;;
34369;SDS011;20635;55.812;37.560;2022-12-18T04:23:35;1.80;;;1.70;;
34369;SDS011;20635;55.812;37.560;2022-12-18T04:26:01;1.90;;;1.80;;
34369;SDS011;20635;55.812;37.560;2022-12-18T04:28:59;1.88;;;1.77;;
34369;SDS011;20635;55.812;37.560;2022-12-18T04:31:26;2.03;;;1.92;;
34369;SDS011;20635;55.812;37.560;2022-12-18T04:33:52;2.20;;;2.00;;
34369;SDS011;20635;55.812;37.560;2022-12-18T04:36:18;2.33;;;2.13;;
34369;SDS011;20635;55.812;37.560;2022-12-18T04:38:46;1.95;;;1.85;;
34369;SDS011;20635;55.812;37.560;2022-12-18T04:41:14;1.90;;;1.80;;
34369;SDS011;20635;55.812;37.560;2022-12-18T04:43:42;2.13;;;1.92;;
34369;SDS011;20635;55.812;37.560;2022-12-18T04:46:08;2.15;;;2.00;;
34369;SDS011;20635;55.812;37.560;2022-12-18T04:48:34;1.85;;;1.75;;
34369;SDS011;20635;55.812;37.560;2022-12-18T04:51:01;2.17;;;2.00;;
34369;SDS011;20635;55.812;37.560;2022-12-18T04:59:49;1.80;;;1.70;;
34369;SDS011;20635;55.812;37.560;2022-12-18T05:02:14;2.00;;;1.85;;
34369;SDS011;20635;55.812;37.560;2022-12-18T05:04:40;1.73;;;1.63;;
34369;SDS011;20635;55.812;37.560;2022-12-18T05:07:06;1.90;;;1.80;;
34369;SDS011;20635;55.812;37.560;2022-12-18T05:09:32;2.10;;;1.45;;
34369;SDS011;20635;55.812;37.560;2022-12-18T05:11:58;1.90;;;1.75;;
34369;SDS011;20635;55.812;37.560;2022-12-18T05:14:24;1.70;;;1.60;;
34369;SDS011;20635;55.812;37.560;2022-12-18T05:16:49;2.53;;;2.25;;
34369;SDS011;20635;55.812;37.560;2022-12-18T05:19:15;1.98;;;1.80;;
34369;SDS011;20635;55.812;37.560;2022-12-18T05:21:41;2.10;;;1.90;;
34369;SDS011;20635;55.812;37.560;2022-12-18T05:24:07;2.08;;;1.88;;
34369;SDS011;20635;55.812;37.560;2022-12-18T05:26:33;2.20;;;2.00;;
34369;SDS011;20635;55.812;37.560;2022-12-18T05:28:59;1.92;;;1.83;;
34369;SDS011;20635;55.812;37.560;2022-12-18T05:31:25;2.05;;;1.85;;
34369;SDS011;20635;55.812;37.560;2022-12-18T05:33:51;10.23;;;2.15;;
34369;SDS011;20635;55.812;37.560;2022-12-18T05:36:17;2.08;;;1.90;;
34369;SDS011;20635;55.812;37.560;2022-12-18T05:38:43;1.98;;;1.88;;
34369;SDS011;20635;55.812;37.560;2022-12-18T05:41:09;4.00;;;1.95;;
34369;SDS011;20635;55.812;37.560;2022-12-18T05:43:36;2.10;;;2.00;;
34369;SDS011;20635;55.812;37.560;2022-12-18T05:46:04;2.03;;;1.92;;
34369;SDS011;20635;55.812;37.560;2022-12-18T05:48:31;1.77;;;1.63;;
34369;SDS011;20635;55.812;37.560;2022-12-18T05:51:02;1.70;;;1.60;;
34369;SDS011;20635;55.812;37.560;2022-12-18T05:53:30;2.25;;;2.05;;
34369;SDS011;20635;55.812;37.560;2022-12-18T05:55:59;2.08;;;1.90;;
34369;SDS011;20635;55.812;37.560;2022-12-18T05:58:27;1.85;;;1.75;;
34369;SDS011;20635;55.812;37.560;2022-12-18T06:00:52;2.30;;;1.90;;
34369;SDS011;20635;55.812;37.560;2022-12-18T06:03:18;2.13;;;1.90;;
34369;SDS011;20635;55.812;37.560;2022-12-18T06:05:44;2.35;;;2.15;;
34369;SDS011;20635;55.812;37.560;2022-12-18T06:08:11;1.90;;;1.80;;
34369;SDS011;20635;55.812;37.560;2022-12-18T06:10:38;4.22;;;1.92;;
34369;SDS011;20635;55.812;37.560;2022-12-18T06:13:04;1.83;;;1.70;;
34369;SDS011;20635;55.812;37.560;2022-12-18T06:15:31;2.00;;;1.90;;
34369;SDS011;20635;55.812;37.560;2022-12-18T06:17:57;5.93;;;2.05;;
34369;SDS011;20635;55.812;37.560;2022-12-18T06:20:23;2.30;;;2.10;;
34369;SDS011;20635;55.812;37.560;2022-12-18T06:22:49;1.73;;;1.63;;
34369;SDS011;20635;55.812;37.560;2022-12-18T06:25:15;1.85;;;1.75;;
34369;SDS011;20635;55.812;37.560;2022-12-18T06:27:41;2.40;;;2.20;;
34369;SDS011;20635;55.812;37.560;2022-12-18T06:30:07;1.90;;;1.73;;
34369;SDS011;20635;55.812;37.560;2022-12-18T06:32:34;2.22;;;2.03;;
34369;SDS011;20635;55.812;37.560;2022-12-18T06:35:00;2.17;;;2.00;;
34369;SDS011;20635;55.812;37.560;2022-12-18T06:37:26;1.90;;;1.80;;
34369;SDS011;20635;55.812;37.560;2022-12-18T06:39:52;2.25;;;2.05;;
34369;SDS011;20635;55.812;37.560;2022-12-18T06:42:18;2.35;;;1.83;;
34369;SDS011;20635;55.812;37.560;2022-12-18T06:44:44;1.90;;;1.80;;
34369;SDS011;20635;55.812;37.560;2022-12-18T06:47:10;1.70;;;1.60;;
34369;SDS011;20635;55.812;37.560;2022-12-18T06:49:36;1.98;;;1.70;;
34369;SDS011;20635;55.812;37.560;2022-12-18T06:52:02;1.88;;;1.77;;
34369;SDS011;20635;55.812;37.560;2022-12-18T06:54:28;2.78;;;1.83;;
34369;SDS011;20635;55.812;37.560;2022-12-18T06:56:54;1.85;;;1.70;;
34369;SDS011;20635;55.812;37.560;2022-12-18T06:59:20;1.75;;;1.65;;
34369;SDS011;20635;55.812;37.560;2022-12-18T07:01:46;1.98;;;1.73;;
34369;SDS011;20635;55.812;37.560;2022-12-18T07:04:11;2.03;;;1.80;;
34369;SDS011;20635;55.812;37.560;2022-12-18T07:06:53;1.70;;;1.60;;
34369;SDS011;20635;55.812;37.560;2022-12-18T07:09:22;2.22;;;1.98;;
34369;SDS011;20635;55.812;37.560;2022-12-18T07:12:04;3.08;;;1.70;;
34369;SDS011;20635;55.812;37.560;2022-12-18T07:14:35;1.83;;;1.73;;
34369;SDS011;20635;55.812;37.560;2022-12-18T07:17:01;1.52;;;1.42;;
34369;SDS011;20635;55.812;37.560;2022-12-18T07:19:27;1.75;;;1.65;;
34369;SDS011;20635;55.812;37.560;2022-12-18T07:21:53;1.92;;;1.73;;
34369;SDS011;20635;55.812;37.560;2022-12-18T07:24:19;1.60;;;1.50;;
34369;SDS011;20635;55.812;37.560;2022-12-18T07:26:45;1.67;;;1.58;;
34369;SDS011;20635;55.812;37.560;2022-12-18T07:29:12;2.15;;;1.88;;
34369;SDS011;20635;55.812;37.560;2022-12-18T07:31:38;2.15;;;1.80;;
34369;SDS011;20635;55.812;37.560;2022-12-18T07:34:04;1.70;;;1.60;;
34369;SDS011;20635;55.812;37.560;2022-12-18T07:36:30;2.35;;;1.60;;
34369;SDS011;20635;55.812;37.560;2022-12-18T07:38:56;3.50;;;2.00;;
34369;SDS011;20635;55.812;37.560;2022-12-18T07:41:22;1.90;;;1.70;;
34369;SDS011;20635;55.812;37.560;2022-12-18T07:43:48;1.92;;;1.73;;
34369;SDS011;20635;55.812;37.560;2022-12-18T07:46:14;2.92;;;1.55;;
34369;SDS011;20635;55.812;37.560;2022-12-18T07:48:41;1.70;;;1.60;;
34369;SDS011;20635;55.812;37.560;2022-12-18T07:51:08;1.70;;;1.60;;
34369;SDS011;20635;55.812;37.560;2022-12-18T07:53:37;1.98;;;1.70;;
34369;SDS011;20635;55.812;37.560;2022-12-18T07:56:04;1.90;;;1.33;;
34369;SDS011;20635;55.812;37.560;2022-12-18T07:58:31;1.60;;;1.50;;
34369;SDS011;20635;55.812;37.560;2022-12-18T08:01:05;1.55;;;1.40;;
34369;SDS011;20635;55.812;37.560;2022-12-18T08:03:32;2.33;;;1.60;;
34369;SDS011;20635;55.812;37.560;2022-12-18T08:05:59;6.25;;;1.50;;
34369;SDS011;20635;55.812;37.560;2022-12-18T08:08:26;3.83;;;1.40;;
34369;SDS011;20635;55.812;37.560;2022-12-18T08:10:53;6.05;;;1.60;;
34369;SDS011;20635;55.812;37.560;2022-12-18T08:13:19;2.60;;;1.48;;
34369;SDS011;20635;55.812;37.560;2022-12-18T08:15:44;3.97;;;1.60;;
34369;SDS011;20635;55.812;37.560;2022-12-18T08:18:10;2.58;;;1.48;;
34369;SDS011;20635;55.812;37.560;2022-12-18T08:20:36;4.40;;;1.55;;
34369;SDS011;20635;55.812;37.560;2022-12-18T08:23:02;1.80;;;1.48;;
34369;SDS011;20635;55.812;37.560;2022-12-18T08:25:28;2.22;;;1.55;;
34369;SDS011;20635;55.812;37.560;2022-12-18T08:27:54;3.70;;;1.85;;
34369;SDS011;20635;55.812;37.560;2022-12-18T08:30:21;2.80;;;1.50;;
34369;SDS011;20635;55.812;37.560;2022-12-18T08:32:50;1.88;;;1.42;;
34369;SDS011;20635;55.812;37.560;2022-12-18T08:35:18;3.30;;;1.52;;
34369;SDS011;20635;55.812;37.560;2022-12-18T08:37:44;2.47;;;1.50;;
34369;SDS011;20635;55.812;37.560;2022-12-18T08:40:09;2.28;;;1.50;;
34369;SDS011;20635;55.812;37.560;2022-12-18T08:42:35;5.05;;;1.98;;
34369;SDS011;20635;55.812;37.560;2022-12-18T08:45:20;1.40;;;1.20;;
34369;SDS011;20635;55.812;37.560;2022-12-18T08:47:46;1.55;;;1.40;;
34369;SDS011;20635;55.812;37.560;2022-12-18T08:50:12;2.10;;;1.42;;
34369;SDS011;20635;55.812;37.560;2022-12-18T08:52:38;4.13;;;1.65;;
34369;SDS011;20635;55.812;37.560;2022-12-18T08:55:04;1.35;;;1.25;;
34369;SDS011;20635;55.812;37.560;2022-12-18T08:57:30;1.50;;;1.30;;
34369;SDS011;20635;55.812;37.560;2022-12-18T08:59:56;3.47;;;1.48;;
34369;SDS011;20635;55.812;37.560;2022-12-18T09:02:22;2.65;;;1.58;;
34369;SDS011;20635;55.812;37.560;2022-12-18T09:04:47;2.17;;;1.60;;
34369;SDS011;20635;55.812;37.560;2022-12-18T09:07:13;1.55;;;1.45;;
34369;SDS011;20635;55.812;37.560;2022-12-18T09:09:39;11.10;;;2.67;;
34369;SDS011;20635;55.812;37.560;2022-12-18T09:12:05;4.15;;;1.40;;
34369;SDS011;20635;55.812;37.560;2022-12-18T09:14:31;3.13;;;1.25;;
34369;SDS011;20635;55.812;37.560;2022-12-18T09:16:57;1.77;;;1.45;;
34369;SDS011;20635;55.812;37.560;2022-12-18T09:19:22;2.70;;;1.55;;
34369;SDS011;20635;55.812;37.560;2022-12-18T09:21:48;5.97;;;1.73;;
34369;SDS011;20635;55.812;37.560;2022-12-18T09:24:14;5.22;;;1.90;;
34369;SDS011;20635;55.812;37.560;2022-12-18T09:26:41;1.67;;;1.58;;
34369;SDS011;20635;55.812;37.560;2022-12-18T09:29:07;3.20;;;2.03;;
34369;SDS011;20635;55.812;37.560;2022-12-18T09:31:33;2.22;;;2.03;;
34369;SDS011;20635;55.812;37.560;2022-12-18T09:33:59;8.35;;;1.85;;
34369;SDS011;20635;55.812;37.560;2022-12-18T09:36:25;2.85;;;1.73;;
34369;SDS011;20635;55.812;37.560;2022-12-18T09:38:51;2.25;;;1.88;;
34369;SDS011;20635;55.812;37.560;2022-12-18T09:41:34;2.75;;;2.08;;
34369;SDS011;20635;55.812;37.560;2022-12-18T09:46:41;1.95;;;1.85;;
34369;SDS011;20635;55.812;37.560;2022-12-18T09:49:17;1.83;;;1.63;;
34369;SDS011;20635;55.812;37.560;2022-12-18T09:54:41;2.50;;;1.70;;
34369;SDS011;20635;55.812;37.560;2022-12-18T09:57:13;2.42;;;1.95;;
34369;SDS011;20635;55.812;37.560;2022-12-18T09:59:44;2.65;;;2.20;;
34369;SDS011;20635;55.812;37.560;2022-12-18T10:02:52;3.03;;;1.83;;
34369;SDS011;20635;55.812;37.560;2022-12-18T10:10:34;4.00;;;2.35;;
34369;SDS011;20635;55.812;37.560;2022-12-18T10:16:25;2.88;;;1.80;;
34369;SDS011;20635;55.812;37.560;2022-12-18T10:19:13;2.30;;;2.10;;
34369;SDS011;20635;55.812;37.560;2022-12-18T10:21:51;2.40;;;2.20;;
34369;SDS011;20635;55.812;37.560;2022-12-18T10:24:45;2.23;;;1.67;;
34369;SDS011;20635;55.812;37.560;2022-12-18T10:27:15;3.63;;;1.77;;
34369;SDS011;20635;55.812;37.560;2022-12-18T10:29:43;1.80;;;1.70;;
34369;SDS011;20635;55.812;37.560;2022-12-18T10:32:18;2.05;;;1.90;;
34369;SDS011;20635;55.812;37.560;2022-12-18T10:34:47;3.25;;;1.80;;
34369;SDS011;20635;55.812;37.560;2022-12-18T10:37:15;2.53;;;1.98;;
34369;SDS011;20635;55.812;37.560;2022-12-18T10:39:43;2.47;;;1.50;;
34369;SDS011;20635;55.812;37.560;2022-12-18T10:42:11;1.77;;;1.67;;
34369;SDS011;20635;55.812;37.560;2022-12-18T10:44:44;2.28;;;2.08;;
34369;SDS011;20635;55.812;37.560;2022-12-18T10:47:11;1.83;;;1.63;;
34369;SDS011;20635;55.812;37.560;2022-12-18T10:49:42;2.22;;;1.80;;
34369;SDS011;20635;55.812;37.560;2022-12-18T10:52:18;2.00;;;1.58;;
34369;SDS011;20635;55.812;37.560;2022-12-18T10:54:54;2.65;;;1.67;;
34369;SDS011;20635;55.812;37.560;2022-12-18T10:57:36;2.47;;;1.80;;
34369;SDS011;20635;55.812;37.560;2022-12-18T11:00:26;2.30;;;2.08;;
34369;SDS011;20635;55.812;37.560;2022-12-18T11:02:53;2.15;;;1.70;;
34369;SDS011;20635;55.812;37.560;2022-12-18T11:05:24;2.35;;;2.15;;
34369;SDS011;20635;55.812;37.560;2022-12-18T11:07:54;3.15;;;1.80;;
34369;SDS011;20635;55.812;37.560;2022-12-18T11:10:22;2.67;;;2.20;;
34369;SDS011;20635;55.812;37.560;2022-12-18T11:12:53;2.10;;;1.90;;
34369;SDS011;20635;55.812;37.560;2022-12-18T11:15:21;2.33;;;1.90;;
34369;SDS011;20635;55.812;37.560;2022-12-18T11:17:51;2.85;;;2.33;;
34369;SDS011;20635;55.812;37.560;2022-12-18T11:20:39;2.53;;;1.98;;
34369;SDS011;20635;55.812;37.560;2022-12-18T11:23:04;2.10;;;1.70;;
34369;SDS011;20635;55.812;37.560;2022-12-18T11:25:37;1.83;;;1.70;;
34369;SDS011;20635;55.812;37.560;2022-12-18T11:28:51;3.38;;;1.95;;
34369;SDS011;20635;55.812;37.560;2022-12-18T11:31:08;2.20;;;2.00;;
34369;SDS011;20635;55.812;37.560;2022-12-18T11:33:35;2.40;;;1.80;;
34369;SDS011;20635;55.812;37.560;2022-12-18T11:36:04;1.75;;;1.65;;
34369;SDS011;20635;55.812;37.560;2022-12-18T11:38:36;1.75;;;1.60;;
34369;SDS011;20635;55.812;37.560;2022-12-18T11:41:07;2.80;;;2.00;;
34369;SDS011;20635;55.812;37.560;2022-12-18T11:44:08;2.20;;;2.00;;
34369;SDS011;20635;55.812;37.560;2022-12-18T11:46:49;2.42;;;1.80;;
34369;SDS011;20635;55.812;37.560;2022-12-18T11:49:22;2.25;;;2.03;;
34369;SDS011;20635;55.812;37.560;2022-12-18T11:54:52;2.67;;;1.80;;
34369;SDS011;20635;55.812;37.560;2022-12-18T11:57:34;1.90;;;1.80;;
34369;SDS011;20635;55.812;37.560;2022-12-18T12:00:15;2.17;;;1.88;;
34369;SDS011;20635;55.812;37.560;2022-12-18T12:16:27;1.90;;;1.80;;
34369;SDS011;20635;55.812;37.560;2022-12-18T12:19:06;1.70;;;1.60;;
34369;SDS011;20635;55.812;37.560;2022-12-18T12:22:02;2.22;;;1.60;;
34369;SDS011;20635;55.812;37.560;2022-12-18T12:27:47;1.67;;;1.50;;
34369;SDS011;20635;55.812;37.560;2022-12-18T12:30:20;1.48;;;1.38;;
34369;SDS011;20635;55.812;37.560;2022-12-18T12:35:25;1.80;;;1.70;;
34369;SDS011;20635;55.812;37.560;2022-12-18T12:38:11;1.63;;;1.50;;
34369;SDS011;20635;55.812;37.560;2022-12-18T12:40:43;2.13;;;1.67;;
34369;SDS011;20635;55.812;37.560;2022-12-18T12:48:17;6.13;;;1.92;;
34369;SDS011;20635;55.812;37.560;2022-12-18T12:50:50;2.03;;;1.75;;
34369;SDS011;20635;55.812;37.560;2022-12-18T12:53:23;3.15;;;1.50;;
34369;SDS011;20635;55.812;37.560;2022-12-18T12:55:54;1.42;;;1.33;;
34369;SDS011;20635;55.812;37.560;2022-12-18T13:01:28;1.90;;;1.70;;
34369;SDS011;20635;55.812;37.560;2022-12-18T13:12:54;2.22;;;1.60;;
34369;SDS011;20635;55.812;37.560;2022-12-18T13:18:16;1.90;;;1.70;;
34369;SDS011;20635;55.812;37.560;2022-12-18T13:23:31;2.10;;;1.70;;
34369;SDS011;20635;55.812;37.560;2022-12-18T13:31:13;2.88;;;2.30;;
34369;SDS011;20635;55.812;37.560;2022-12-18T13:39:58;3.10;;;2.70;;
34369;SDS011;20635;55.812;37.560;2022-12-18T13:45:45;4.45;;;2.47;;
34369;SDS011;20635;55.812;37.560;2022-12-18T13:48:24;3.47;;;2.65;;
34369;SDS011;20635;55.812;37.560;2022-12-18T13:50:53;2.97;;;2.60;;
34369;SDS011;20635;55.812;37.560;2022-12-18T13:53:26;3.45;;;2.80;;
34369;SDS011;20635;55.812;37.560;2022-12-18T13:55:57;3.78;;;2.40;;
34369;SDS011;20635;55.812;37.560;2022-12-18T13:58:31;2.88;;;2.58;;
34369;SDS011;20635;55.812;37.560;2022-12-18T14:00:57;3.20;;;2.47;;
34369;SDS011;20635;55.812;37.560;2022-12-18T14:03:30;3.83;;;2.70;;
34369;SDS011;20635;55.812;37.560;2022-12-18T14:05:58;3.35;;;2.83;;
34369;SDS011;20635;55.812;37.560;2022-12-18T14:08:27;4.15;;;2.78;;
34369;SDS011;20635;55.812;37.560;2022-12-18T14:10:59;6.07;;;2.67;;
34369;SDS011;20635;55.812;37.560;2022-12-18T14:13:30;4.10;;;2.45;;
34369;SDS011;20635;55.812;37.560;2022-12-18T14:16:00;3.45;;;2.65;;
34369;SDS011;20635;55.812;37.560;2022-12-18T14:18:34;4.13;;;2.92;;
34369;SDS011;20635;55.812;37.560;2022-12-18T14:21:15;3.30;;;2.92;;
34369;SDS011;20635;55.812;37.560;2022-12-18T14:23:45;3.85;;;3.03;;
34369;SDS011;20635;55.812;37.560;2022-12-18T14:28:57;3.78;;;3.33;;
34369;SDS011;20635;55.812;37.560;2022-12-18T14:31:27;4.10;;;3.20;;
34369;SDS011;20635;55.812;37.560;2022-12-18T14:33:56;6.00;;;3.65;;
34369;SDS011;20635;55.812;37.560;2022-12-18T14:36:24;3.85;;;3.03;;
34369;SDS011;20635;55.812;37.560;2022-12-18T14:38:52;3.30;;;2.90;;
34369;SDS011;20635;55.812;37.560;2022-12-18T14:41:26;6.43;;;3.08;;
34369;SDS011;20635;55.812;37.560;2022-12-18T14:43:53;3.22;;;2.67;;
34369;SDS011;20635;55.812;37.560;2022-12-18T14:49:17;4.93;;;2.70;;
34369;SDS011;20635;55.812;37.560;2022-12-18T14:52:32;3.70;;;3.17;;
34369;SDS011;20635;55.812;37.560;2022-12-18T14:54:53;2.95;;;2.60;;
34369;SDS011;20635;55.812;37.560;2022-12-18T14:59:55;2.60;;;2.40;;
34369;SDS011;20635;55.812;37.560;2022-12-18T15:02:36;2.67;;;2.30;;
34369;SDS011;20635;55.812;37.560;2022-12-18T15:05:03;3.40;;;2.45;;
34369;SDS011;20635;55.812;37.560;2022-12-18T15:08:00;2.92;;;2.63;;
34369;SDS011;20635;55.812;37.560;2022-12-18T15:10:53;2.65;;;2.30;;
34369;SDS011;20635;55.812;37.560;2022-12-18T15:13:25;2.47;;;1.98;;
34369;SDS011;20635;55.812;37.560;2022-12-18T15:15:52;3.15;;;2.63;;
34369;SDS011;20635;55.812;37.560;2022-12-18T15:18:32;2.30;;;2.10;;
34369;SDS011;20635;55.812;37.560;2022-12-18T15:21:10;4.32;;;2.60;;
34369;SDS011;20635;55.812;37.560;2022-12-18T15:26:09;2.45;;;1.90;;
34369;SDS011;20635;55.812;37.560;2022-12-18T15:36:20;2.90;;;1.63;;
34369;SDS011;20635;55.812;37.560;2022-12-18T15:38:50;2.47;;;1.63;;
34369;SDS011;20635;55.812;37.560;2022-12-18T15:41:21;3.05;;;2.00;;
34369;SDS011;20635;55.812;37.560;2022-12-18T15:43:49;2.13;;;1.92;;
34369;SDS011;20635;55.812;37.560;2022-12-18T15:46:21;6.13;;;2.22;;
34369;SDS011;20635;55.812;37.560;2022-12-18T15:48:54;2.40;;;1.92;;
34369;SDS011;20635;55.812;37.560;2022-12-18T15:51:37;2.60;;;1.90;;
34369;SDS011;20635;55.812;37.560;2022-12-18T15:54:05;3.58;;;1.80;;
34369;SDS011;20635;55.812;37.560;2022-12-18T15:56:35;1.93;;;1.73;;
34369;SDS011;20635;55.812;37.560;2022-12-18T15:59:20;2.15;;;1.50;;
34369;SDS011;20635;55.812;37.560;2022-12-18T16:01:48;8.10;;;1.75;;
34369;SDS011;20635;55.812;37.560;2022-12-18T16:04:16;2.90;;;1.75;;
34369;SDS011;20635;55.812;37.560;2022-12-18T16:06:45;1.88;;;1.67;;
34369;SDS011;20635;55.812;37.560;2022-12-18T16:09:12;1.75;;;1.55;;
34369;SDS011;20635;55.812;37.560;2022-12-18T16:11:39;1.85;;;1.63;;
34369;SDS011;20635;55.812;37.560;2022-12-18T16:14:24;2.03;;;1.80;;
34369;SDS011;20635;55.812;37.560;2022-12-18T16:16:56;3.33;;;1.50;;
34369;SDS011;20635;55.812;37.560;2022-12-18T16:19:27;3.90;;;1.85;;
34369;SDS011;20635;55.812;37.560;2022-12-18T16:21:55;2.22;;;1.77;;
34369;SDS011;20635;55.812;37.560;2022-12-18T16:24:24;2.83;;;1.55;;
34369;SDS011;20635;55.812;37.560;2022-12-18T16:26:52;2.15;;;1.50;;
34369;SDS011;20635;55.812;37.560;2022-12-18T16:29:19;2.90;;;1.73;;
34369;SDS011;20635;55.812;37.560;2022-12-18T16:31:59;1.55;;;1.45;;
34369;SDS011;20635;55.812;37.560;2022-12-18T16:34:32;2.80;;;1.55;;
34369;SDS011;20635;55.812;37.560;2022-12-18T16:37:00;5.82;;;2.17;;
34369;SDS011;20635;55.812;37.560;2022-12-18T16:39:35;5.30;;;1.40;;
34369;SDS011;20635;55.812;37.560;2022-12-18T16:42:14;2.72;;;1.80;;
34369;SDS011;20635;55.812;37.560;2022-12-18T16:44:47;1.77;;;1.60;;
34369;SDS011;20635;55.812;37.560;2022-12-18T16:47:14;1.83;;;1.40;;
34369;SDS011;20635;55.812;37.560;2022-12-18T16:49:41;1.48;;;1.38;;
34369;SDS011;20635;55.812;37.560;2022-12-18T16:54:42;3.08;;;1.50;;
34369;SDS011;20635;55.812;37.560;2022-12-18T16:57:12;1.48;;;1.38;;
34369;SDS011;20635;55.812;37.560;2022-12-18T16:59:39;1.35;;;1.25;;
34369;SDS011;20635;55.812;37.560;2022-12-18T17:02:05;1.73;;;1.50;;
34369;SDS011;20635;55.812;37.560;2022-12-18T17:04:35;2.38;;;1.60;;
34369;SDS011;20635;55.812;37.560;2022-12-18T17:07:01;1.40;;;1.30;;
34369;SDS011;20635;55.812;37.560;2022-12-18T17:09:29;1.33;;;1.23;;
34369;SDS011;20635;55.812;37.560;2022-12-18T17:11:55;2.55;;;1.50;;
34369;SDS011;20635;55.812;37.560;2022-12-18T17:14:22;2.25;;;1.55;;